sensor_id;sensor_type;location;lat;lon;timestamp;P1;durP1;ratioP1;P2;durP2;ratioP2
12826;SDS011;66927;48.812;9.118;2023-08-06T00:00:15;3.27;;;2.97;;
12826;SDS011;66927;48.812;9.118;2023-08-06T00:02:40;3.47;;;2.30;;
12826;SDS011;66927;48.812;9.118;2023-08-06T00:05:06;2.30;;;2.10;;
12826;SDS011;66927;48.812;9.118;2023-08-06T00:07:32;2.53;;;2.23;;
12826;SDS011;66927;48.812;9.118;2023-08-06T00:09:57;2.00;;;1.90;;
12826;SDS011;66927;48.812;9.118;2023-08-06T00:12:23;2.53;;;2.10;;
12826;SDS011;66927;48.812;9.118;2023-08-06T00:14:52;2.07;;;1.87;;
12826;SDS011;66927;48.812;9.118;2023-08-06T00:17:19;2.57;;;2.27;;
12826;SDS011;66927;48.812;9.118;2023-08-06T00:19:45;2.00;;;1.90;;
12826;SDS011;66927;48.812;9.118;2023-08-06T00:22:11;2.83;;;2.13;;
12826;SDS011;66927;48.812;9.118;2023-08-06T00:24:37;2.10;;;1.90;;
12826;SDS011;66927;48.812;9.118;2023-08-06T00:27:03;2.70;;;1.73;;
12826;SDS011;66927;48.812;9.118;2023-08-06T00:29:29;2.53;;;2.33;;
12826;SDS011;66927;48.812;9.118;2023-08-06T00:31:54;2.40;;;2.20;;
12826;SDS011;66927;48.812;9.118;2023-08-06T00:34:20;3.20;;;2.20;;
12826;SDS011;66927;48.812;9.118;2023-08-06T00:36:47;2.37;;;1.77;;
12826;SDS011;66927;48.812;9.118;2023-08-06T00:39:14;2.03;;;1.87;;
12826;SDS011;66927;48.812;9.118;2023-08-06T00:41:39;2.37;;;2.10;;
12826;SDS011;66927;48.812;9.118;2023-08-06T00:44:05;1.87;;;1.70;;
12826;SDS011;66927;48.812;9.118;2023-08-06T00:46:32;2.17;;;1.97;;
12826;SDS011;66927;48.812;9.118;2023-08-06T00:48:58;2.17;;;1.97;;
12826;SDS011;66927;48.812;9.118;2023-08-06T00:51:24;2.63;;;2.17;;
12826;SDS011;66927;48.812;9.118;2023-08-06T00:53:52;3.07;;;2.00;;
12826;SDS011;66927;48.812;9.118;2023-08-06T00:56:18;2.20;;;2.03;;
12826;SDS011;66927;48.812;9.118;2023-08-06T00:58:44;2.27;;;1.80;;
12826;SDS011;66927;48.812;9.118;2023-08-06T01:01:11;3.13;;;2.13;;
12826;SDS011;66927;48.812;9.118;2023-08-06T01:03:36;2.30;;;2.10;;
12826;SDS011;66927;48.812;9.118;2023-08-06T01:06:02;3.17;;;2.10;;
12826;SDS011;66927;48.812;9.118;2023-08-06T01:13:54;2.57;;;2.20;;
12826;SDS011;66927;48.812;9.118;2023-08-06T01:16:31;1.90;;;1.80;;
12826;SDS011;66927;48.812;9.118;2023-08-06T01:18:58;2.20;;;1.90;;
12826;SDS011;66927;48.812;9.118;2023-08-06T01:21:24;2.13;;;1.87;;
12826;SDS011;66927;48.812;9.118;2023-08-06T01:23:49;2.30;;;1.97;;
12826;SDS011;66927;48.812;9.118;2023-08-06T01:26:26;2.23;;;2.03;;
12826;SDS011;66927;48.812;9.118;2023-08-06T01:29:20;2.87;;;1.73;;
12826;SDS011;66927;48.812;9.118;2023-08-06T01:31:55;1.80;;;1.70;;
12826;SDS011;66927;48.812;9.118;2023-08-06T01:34:27;2.00;;;1.80;;
12826;SDS011;66927;48.812;9.118;2023-08-06T01:36:55;3.93;;;2.17;;
12826;SDS011;66927;48.812;9.118;2023-08-06T01:39:22;2.33;;;1.93;;
12826;SDS011;66927;48.812;9.118;2023-08-06T01:41:48;2.87;;;1.97;;
12826;SDS011;66927;48.812;9.118;2023-08-06T01:44:14;3.93;;;2.20;;
12826;SDS011;66927;48.812;9.118;2023-08-06T01:46:40;3.50;;;2.10;;
12826;SDS011;66927;48.812;9.118;2023-08-06T01:49:06;2.20;;;1.83;;
12826;SDS011;66927;48.812;9.118;2023-08-06T01:51:32;2.07;;;1.87;;
12826;SDS011;66927;48.812;9.118;2023-08-06T01:53:57;2.90;;;2.00;;
12826;SDS011;66927;48.812;9.118;2023-08-06T01:56:23;2.03;;;1.77;;
12826;SDS011;66927;48.812;9.118;2023-08-06T01:58:50;3.63;;;1.97;;
12826;SDS011;66927;48.812;9.118;2023-08-06T02:01:15;2.10;;;1.80;;
12826;SDS011;66927;48.812;9.118;2023-08-06T02:03:41;1.70;;;1.50;;
12826;SDS011;66927;48.812;9.118;2023-08-06T02:06:07;1.93;;;1.83;;
12826;SDS011;66927;48.812;9.118;2023-08-06T02:08:32;2.77;;;1.83;;
12826;SDS011;66927;48.812;9.118;2023-08-06T02:10:58;3.63;;;2.07;;
12826;SDS011;66927;48.812;9.118;2023-08-06T02:13:24;2.83;;;1.93;;
12826;SDS011;66927;48.812;9.118;2023-08-06T02:15:49;2.00;;;1.80;;
12826;SDS011;66927;48.812;9.118;2023-08-06T02:18:15;2.90;;;1.80;;
12826;SDS011;66927;48.812;9.118;2023-08-06T02:20:42;1.93;;;1.80;;
12826;SDS011;66927;48.812;9.118;2023-08-06T02:23:08;2.20;;;2.00;;
12826;SDS011;66927;48.812;9.118;2023-08-06T02:25:34;2.70;;;1.70;;
12826;SDS011;66927;48.812;9.118;2023-08-06T02:28:00;2.10;;;1.90;;
12826;SDS011;66927;48.812;9.118;2023-08-06T02:30:25;2.67;;;1.70;;
12826;SDS011;66927;48.812;9.118;2023-08-06T02:32:52;2.47;;;1.80;;
12826;SDS011;66927;48.812;9.118;2023-08-06T02:35:18;2.30;;;1.80;;
12826;SDS011;66927;48.812;9.118;2023-08-06T02:37:44;2.33;;;1.77;;
12826;SDS011;66927;48.812;9.118;2023-08-06T02:40:10;2.83;;;2.10;;
12826;SDS011;66927;48.812;9.118;2023-08-06T02:42:37;2.00;;;1.80;;
12826;SDS011;66927;48.812;9.118;2023-08-06T02:45:02;2.27;;;1.87;;
12826;SDS011;66927;48.812;9.118;2023-08-06T02:47:28;2.17;;;1.80;;
12826;SDS011;66927;48.812;9.118;2023-08-06T02:49:54;3.13;;;1.90;;
12826;SDS011;66927;48.812;9.118;2023-08-06T02:52:20;2.30;;;2.10;;
12826;SDS011;66927;48.812;9.118;2023-08-06T02:54:45;3.27;;;2.00;;
12826;SDS011;66927;48.812;9.118;2023-08-06T02:57:11;2.27;;;2.00;;
12826;SDS011;66927;48.812;9.118;2023-08-06T02:59:36;2.90;;;2.00;;
12826;SDS011;66927;48.812;9.118;2023-08-06T03:02:02;3.07;;;1.93;;
12826;SDS011;66927;48.812;9.118;2023-08-06T03:04:27;3.33;;;2.10;;
12826;SDS011;66927;48.812;9.118;2023-08-06T03:06:53;2.73;;;1.93;;
12826;SDS011;66927;48.812;9.118;2023-08-06T03:09:19;2.47;;;1.90;;
12826;SDS011;66927;48.812;9.118;2023-08-06T03:11:44;2.03;;;1.80;;
12826;SDS011;66927;48.812;9.118;2023-08-06T03:14:10;1.87;;;1.77;;
12826;SDS011;66927;48.812;9.118;2023-08-06T03:16:35;2.33;;;1.90;;
12826;SDS011;66927;48.812;9.118;2023-08-06T03:19:01;2.00;;;1.80;;
12826;SDS011;66927;48.812;9.118;2023-08-06T03:21:27;2.37;;;2.00;;
12826;SDS011;66927;48.812;9.118;2023-08-06T03:23:53;3.17;;;1.87;;
12826;SDS011;66927;48.812;9.118;2023-08-06T03:26:18;2.00;;;1.80;;
12826;SDS011;66927;48.812;9.118;2023-08-06T03:28:44;2.03;;;1.80;;
12826;SDS011;66927;48.812;9.118;2023-08-06T03:31:09;3.20;;;1.77;;
12826;SDS011;66927;48.812;9.118;2023-08-06T03:33:35;6.30;;;2.17;;
12826;SDS011;66927;48.812;9.118;2023-08-06T03:36:01;2.03;;;1.83;;
12826;SDS011;66927;48.812;9.118;2023-08-06T03:38:26;2.83;;;1.77;;
12826;SDS011;66927;48.812;9.118;2023-08-06T03:40:52;2.67;;;1.87;;
12826;SDS011;66927;48.812;9.118;2023-08-06T03:43:18;2.90;;;2.13;;
12826;SDS011;66927;48.812;9.118;2023-08-06T03:45:44;2.07;;;1.87;;
12826;SDS011;66927;48.812;9.118;2023-08-06T03:48:09;3.90;;;1.93;;
12826;SDS011;66927;48.812;9.118;2023-08-06T03:50:35;3.20;;;1.87;;
12826;SDS011;66927;48.812;9.118;2023-08-06T03:53:00;2.67;;;2.10;;
12826;SDS011;66927;48.812;9.118;2023-08-06T03:55:26;2.47;;;1.90;;
12826;SDS011;66927;48.812;9.118;2023-08-06T03:57:52;3.37;;;2.10;;
12826;SDS011;66927;48.812;9.118;2023-08-06T04:00:18;2.83;;;1.90;;
12826;SDS011;66927;48.812;9.118;2023-08-06T04:02:43;2.70;;;2.00;;
12826;SDS011;66927;48.812;9.118;2023-08-06T04:05:10;2.67;;;1.70;;
12826;SDS011;66927;48.812;9.118;2023-08-06T04:07:36;2.53;;;1.90;;
12826;SDS011;66927;48.812;9.118;2023-08-06T04:10:02;2.73;;;2.10;;
12826;SDS011;66927;48.812;9.118;2023-08-06T04:12:30;2.60;;;1.67;;
12826;SDS011;66927;48.812;9.118;2023-08-06T04:14:57;4.57;;;1.87;;
12826;SDS011;66927;48.812;9.118;2023-08-06T04:17:24;2.73;;;1.80;;
12826;SDS011;66927;48.812;9.118;2023-08-06T04:19:53;2.40;;;2.20;;
12826;SDS011;66927;48.812;9.118;2023-08-06T04:22:19;3.70;;;1.60;;
12826;SDS011;66927;48.812;9.118;2023-08-06T04:24:46;3.00;;;1.97;;
12826;SDS011;66927;48.812;9.118;2023-08-06T04:27:13;3.57;;;1.80;;
12826;SDS011;66927;48.812;9.118;2023-08-06T04:29:40;2.53;;;1.90;;
12826;SDS011;66927;48.812;9.118;2023-08-06T04:32:08;2.67;;;1.87;;
12826;SDS011;66927;48.812;9.118;2023-08-06T04:34:35;2.63;;;1.77;;
12826;SDS011;66927;48.812;9.118;2023-08-06T04:37:01;2.30;;;2.00;;
12826;SDS011;66927;48.812;9.118;2023-08-06T04:39:28;2.70;;;1.70;;
12826;SDS011;66927;48.812;9.118;2023-08-06T04:41:55;2.40;;;1.90;;
12826;SDS011;66927;48.812;9.118;2023-08-06T04:44:21;2.00;;;1.80;;
12826;SDS011;66927;48.812;9.118;2023-08-06T04:46:47;3.80;;;2.10;;
12826;SDS011;66927;48.812;9.118;2023-08-06T04:49:12;3.40;;;1.90;;
12826;SDS011;66927;48.812;9.118;2023-08-06T04:51:38;3.27;;;2.20;;
12826;SDS011;66927;48.812;9.118;2023-08-06T04:54:03;4.07;;;2.23;;
12826;SDS011;66927;48.812;9.118;2023-08-06T04:56:29;4.80;;;1.77;;
12826;SDS011;66927;48.812;9.118;2023-08-06T04:58:54;1.93;;;1.73;;
12826;SDS011;66927;48.812;9.118;2023-08-06T05:01:20;3.20;;;1.80;;
12826;SDS011;66927;48.812;9.118;2023-08-06T05:03:46;3.10;;;1.73;;
12826;SDS011;66927;48.812;9.118;2023-08-06T05:06:12;2.63;;;1.83;;
12826;SDS011;66927;48.812;9.118;2023-08-06T05:08:38;2.40;;;2.20;;
12826;SDS011;66927;48.812;9.118;2023-08-06T05:11:03;2.57;;;2.00;;
12826;SDS011;66927;48.812;9.118;2023-08-06T05:13:29;2.63;;;2.00;;
12826;SDS011;66927;48.812;9.118;2023-08-06T05:15:55;2.07;;;1.57;;
12826;SDS011;66927;48.812;9.118;2023-08-06T05:18:20;3.33;;;1.83;;
12826;SDS011;66927;48.812;9.118;2023-08-06T05:20:47;1.97;;;1.77;;
12826;SDS011;66927;48.812;9.118;2023-08-06T05:23:13;1.83;;;1.50;;
12826;SDS011;66927;48.812;9.118;2023-08-06T05:25:39;1.70;;;1.57;;
12826;SDS011;66927;48.812;9.118;2023-08-06T05:28:05;2.57;;;1.70;;
12826;SDS011;66927;48.812;9.118;2023-08-06T05:30:32;3.00;;;1.40;;
12826;SDS011;66927;48.812;9.118;2023-08-06T05:32:58;1.67;;;1.50;;
12826;SDS011;66927;48.812;9.118;2023-08-06T05:35:23;1.87;;;1.50;;
12826;SDS011;66927;48.812;9.118;2023-08-06T05:37:52;1.67;;;1.57;;
12826;SDS011;66927;48.812;9.118;2023-08-06T05:40:18;1.90;;;1.47;;
12826;SDS011;66927;48.812;9.118;2023-08-06T05:42:43;4.10;;;1.40;;
12826;SDS011;66927;48.812;9.118;2023-08-06T05:45:09;1.33;;;1.07;;
12826;SDS011;66927;48.812;9.118;2023-08-06T05:47:35;3.17;;;1.27;;
12826;SDS011;66927;48.812;9.118;2023-08-06T05:50:00;1.00;;;1.00;;
12826;SDS011;66927;48.812;9.118;2023-08-06T05:52:26;2.23;;;1.13;;
12826;SDS011;66927;48.812;9.118;2023-08-06T05:54:52;2.40;;;1.23;;
12826;SDS011;66927;48.812;9.118;2023-08-06T05:57:18;1.30;;;0.90;;
12826;SDS011;66927;48.812;9.118;2023-08-06T05:59:44;1.27;;;0.90;;
12826;SDS011;66927;48.812;9.118;2023-08-06T06:02:09;1.87;;;1.20;;
12826;SDS011;66927;48.812;9.118;2023-08-06T06:04:35;1.83;;;1.10;;
12826;SDS011;66927;48.812;9.118;2023-08-06T06:07:01;2.33;;;1.10;;
12826;SDS011;66927;48.812;9.118;2023-08-06T06:09:27;1.70;;;1.10;;
12826;SDS011;66927;48.812;9.118;2023-08-06T06:11:53;1.53;;;1.00;;
12826;SDS011;66927;48.812;9.118;2023-08-06T06:14:18;1.13;;;0.87;;
12826;SDS011;66927;48.812;9.118;2023-08-06T06:16:44;0.97;;;0.87;;
12826;SDS011;66927;48.812;9.118;2023-08-06T06:19:11;1.50;;;1.10;;
12826;SDS011;66927;48.812;9.118;2023-08-06T06:21:37;2.00;;;0.90;;
12826;SDS011;66927;48.812;9.118;2023-08-06T06:24:03;1.57;;;1.00;;
12826;SDS011;66927;48.812;9.118;2023-08-06T06:26:30;2.73;;;0.90;;
12826;SDS011;66927;48.812;9.118;2023-08-06T06:28:56;1.30;;;1.03;;
12826;SDS011;66927;48.812;9.118;2023-08-06T06:31:21;1.20;;;0.90;;
12826;SDS011;66927;48.812;9.118;2023-08-06T06:33:47;2.90;;;0.97;;
12826;SDS011;66927;48.812;9.118;2023-08-06T06:36:13;2.90;;;1.00;;
12826;SDS011;66927;48.812;9.118;2023-08-06T06:38:38;1.43;;;0.80;;
12826;SDS011;66927;48.812;9.118;2023-08-06T06:41:04;1.30;;;0.90;;
12826;SDS011;66927;48.812;9.118;2023-08-06T06:43:31;1.30;;;0.80;;
12826;SDS011;66927;48.812;9.118;2023-08-06T06:45:57;1.07;;;0.77;;
12826;SDS011;66927;48.812;9.118;2023-08-06T06:48:26;0.70;;;0.70;;
12826;SDS011;66927;48.812;9.118;2023-08-06T06:50:52;1.20;;;0.70;;
12826;SDS011;66927;48.812;9.118;2023-08-06T06:53:18;0.77;;;0.70;;
12826;SDS011;66927;48.812;9.118;2023-08-06T06:55:44;1.23;;;0.90;;
12826;SDS011;66927;48.812;9.118;2023-08-06T06:58:11;1.67;;;0.70;;
12826;SDS011;66927;48.812;9.118;2023-08-06T07:00:36;1.70;;;0.93;;
12826;SDS011;66927;48.812;9.118;2023-08-06T07:03:02;1.03;;;0.93;;
12826;SDS011;66927;48.812;9.118;2023-08-06T07:05:28;1.67;;;1.10;;
12826;SDS011;66927;48.812;9.118;2023-08-06T07:07:55;0.80;;;0.80;;
12826;SDS011;66927;48.812;9.118;2023-08-06T07:10:22;2.17;;;0.80;;
12826;SDS011;66927;48.812;9.118;2023-08-06T07:12:47;1.37;;;0.90;;
12826;SDS011;66927;48.812;9.118;2023-08-06T07:15:13;0.90;;;0.90;;
12826;SDS011;66927;48.812;9.118;2023-08-06T07:17:38;1.03;;;0.83;;
12826;SDS011;66927;48.812;9.118;2023-08-06T07:20:05;0.70;;;0.70;;
12826;SDS011;66927;48.812;9.118;2023-08-06T07:22:31;2.00;;;0.73;;
12826;SDS011;66927;48.812;9.118;2023-08-06T07:24:57;1.03;;;0.70;;
12826;SDS011;66927;48.812;9.118;2023-08-06T07:27:22;0.70;;;0.70;;
12826;SDS011;66927;48.812;9.118;2023-08-06T07:29:50;1.10;;;0.73;;
12826;SDS011;66927;48.812;9.118;2023-08-06T07:32:17;0.70;;;0.70;;
12826;SDS011;66927;48.812;9.118;2023-08-06T07:34:42;1.07;;;0.80;;
12826;SDS011;66927;48.812;9.118;2023-08-06T07:37:08;0.90;;;0.90;;
12826;SDS011;66927;48.812;9.118;2023-08-06T07:39:33;0.80;;;0.80;;
12826;SDS011;66927;48.812;9.118;2023-08-06T07:41:59;1.03;;;0.70;;
12826;SDS011;66927;48.812;9.118;2023-08-06T07:44:27;0.60;;;0.60;;
12826;SDS011;66927;48.812;9.118;2023-08-06T07:46:52;1.37;;;0.70;;
12826;SDS011;66927;48.812;9.118;2023-08-06T07:49:18;0.97;;;0.63;;
12826;SDS011;66927;48.812;9.118;2023-08-06T07:51:44;0.97;;;0.60;;
12826;SDS011;66927;48.812;9.118;2023-08-06T07:54:09;0.70;;;0.70;;
12826;SDS011;66927;48.812;9.118;2023-08-06T07:56:35;1.57;;;0.57;;
12826;SDS011;66927;48.812;9.118;2023-08-06T07:59:01;0.60;;;0.60;;
12826;SDS011;66927;48.812;9.118;2023-08-06T08:01:28;0.70;;;0.63;;
12826;SDS011;66927;48.812;9.118;2023-08-06T08:03:54;1.33;;;0.80;;
12826;SDS011;66927;48.812;9.118;2023-08-06T08:06:19;0.83;;;0.60;;
12826;SDS011;66927;48.812;9.118;2023-08-06T08:08:45;0.67;;;0.67;;
12826;SDS011;66927;48.812;9.118;2023-08-06T08:11:11;1.20;;;0.60;;
12826;SDS011;66927;48.812;9.118;2023-08-06T08:13:36;0.60;;;0.60;;
12826;SDS011;66927;48.812;9.118;2023-08-06T08:16:02;0.50;;;0.50;;
12826;SDS011;66927;48.812;9.118;2023-08-06T08:18:28;0.63;;;0.63;;
12826;SDS011;66927;48.812;9.118;2023-08-06T08:20:54;0.93;;;0.70;;
12826;SDS011;66927;48.812;9.118;2023-08-06T08:23:20;0.50;;;0.50;;
12826;SDS011;66927;48.812;9.118;2023-08-06T08:25:46;2.40;;;0.57;;
12826;SDS011;66927;48.812;9.118;2023-08-06T08:28:12;0.93;;;0.80;;
12826;SDS011;66927;48.812;9.118;2023-08-06T08:30:41;0.40;;;0.40;;
12826;SDS011;66927;48.812;9.118;2023-08-06T08:33:07;0.40;;;0.40;;
12826;SDS011;66927;48.812;9.118;2023-08-06T08:35:34;0.50;;;0.50;;
12826;SDS011;66927;48.812;9.118;2023-08-06T08:38:01;0.60;;;0.50;;
12826;SDS011;66927;48.812;9.118;2023-08-06T08:40:29;0.70;;;0.40;;
12826;SDS011;66927;48.812;9.118;2023-08-06T08:42:57;0.47;;;0.47;;
12826;SDS011;66927;48.812;9.118;2023-08-06T08:45:23;0.40;;;0.40;;
12826;SDS011;66927;48.812;9.118;2023-08-06T08:47:52;0.40;;;0.40;;
12826;SDS011;66927;48.812;9.118;2023-08-06T08:50:18;0.33;;;0.33;;
12826;SDS011;66927;48.812;9.118;2023-08-06T08:52:51;0.50;;;0.50;;
12826;SDS011;66927;48.812;9.118;2023-08-06T08:55:17;0.50;;;0.50;;
12826;SDS011;66927;48.812;9.118;2023-08-06T08:57:42;0.40;;;0.40;;
12826;SDS011;66927;48.812;9.118;2023-08-06T09:00:11;0.63;;;0.47;;
12826;SDS011;66927;48.812;9.118;2023-08-06T09:02:39;0.67;;;0.37;;
12826;SDS011;66927;48.812;9.118;2023-08-06T09:05:07;0.93;;;0.47;;
12826;SDS011;66927;48.812;9.118;2023-08-06T09:07:43;0.40;;;0.40;;
12826;SDS011;66927;48.812;9.118;2023-08-06T09:10:13;0.53;;;0.40;;
12826;SDS011;66927;48.812;9.118;2023-08-06T09:12:42;0.40;;;0.40;;
12826;SDS011;66927;48.812;9.118;2023-08-06T09:15:09;0.40;;;0.40;;
12826;SDS011;66927;48.812;9.118;2023-08-06T09:17:36;0.30;;;0.30;;
12826;SDS011;66927;48.812;9.118;2023-08-06T09:20:09;3.10;;;0.47;;
12826;SDS011;66927;48.812;9.118;2023-08-06T09:22:36;0.40;;;0.40;;
12826;SDS011;66927;48.812;9.118;2023-08-06T09:25:01;0.30;;;0.30;;
12826;SDS011;66927;48.812;9.118;2023-08-06T09:27:31;0.50;;;0.50;;
12826;SDS011;66927;48.812;9.118;2023-08-06T09:29:57;0.40;;;0.40;;
12826;SDS011;66927;48.812;9.118;2023-08-06T09:32:22;0.40;;;0.40;;
12826;SDS011;66927;48.812;9.118;2023-08-06T09:34:54;0.40;;;0.40;;
12826;SDS011;66927;48.812;9.118;2023-08-06T09:37:21;3.13;;;2.73;;
12826;SDS011;66927;48.812;9.118;2023-08-06T09:39:47;1.00;;;1.00;;
12826;SDS011;66927;48.812;9.118;2023-08-06T09:42:14;0.70;;;0.70;;
12826;SDS011;66927;48.812;9.118;2023-08-06T09:44:41;0.40;;;0.40;;
12826;SDS011;66927;48.812;9.118;2023-08-06T09:47:07;1.10;;;0.53;;
12826;SDS011;66927;48.812;9.118;2023-08-06T09:51:58;0.77;;;0.47;;
12826;SDS011;66927;48.812;9.118;2023-08-06T09:54:26;0.40;;;0.40;;
12826;SDS011;66927;48.812;9.118;2023-08-06T09:56:54;0.40;;;0.40;;
12826;SDS011;66927;48.812;9.118;2023-08-06T09:59:20;0.50;;;0.50;;
12826;SDS011;66927;48.812;9.118;2023-08-06T10:01:46;0.87;;;0.47;;
12826;SDS011;66927;48.812;9.118;2023-08-06T10:04:13;1.67;;;1.57;;
12826;SDS011;66927;48.812;9.118;2023-08-06T10:06:41;0.63;;;0.63;;
12826;SDS011;66927;48.812;9.118;2023-08-06T10:09:08;1.10;;;1.00;;
12826;SDS011;66927;48.812;9.118;2023-08-06T10:11:34;0.70;;;0.70;;
12826;SDS011;66927;48.812;9.118;2023-08-06T10:14:10;2.50;;;1.40;;
12826;SDS011;66927;48.812;9.118;2023-08-06T10:16:39;0.40;;;0.40;;
12826;SDS011;66927;48.812;9.118;2023-08-06T10:19:05;0.40;;;0.40;;
12826;SDS011;66927;48.812;9.118;2023-08-06T10:21:34;0.50;;;0.50;;
12826;SDS011;66927;48.812;9.118;2023-08-06T10:24:00;0.63;;;0.60;;
12826;SDS011;66927;48.812;9.118;2023-08-06T10:26:28;0.67;;;0.50;;
12826;SDS011;66927;48.812;9.118;2023-08-06T10:28:54;0.50;;;0.50;;
12826;SDS011;66927;48.812;9.118;2023-08-06T10:31:33;0.50;;;0.40;;
12826;SDS011;66927;48.812;9.118;2023-08-06T10:34:18;0.53;;;0.53;;
12826;SDS011;66927;48.812;9.118;2023-08-06T10:36:45;0.50;;;0.50;;
12826;SDS011;66927;48.812;9.118;2023-08-06T10:39:13;0.77;;;0.77;;
12826;SDS011;66927;48.812;9.118;2023-08-06T10:41:40;0.80;;;0.70;;
12826;SDS011;66927;48.812;9.118;2023-08-06T10:44:08;4.47;;;2.90;;
12826;SDS011;66927;48.812;9.118;2023-08-06T10:46:35;0.60;;;0.60;;
12826;SDS011;66927;48.812;9.118;2023-08-06T10:49:01;0.33;;;0.33;;
12826;SDS011;66927;48.812;9.118;2023-08-06T10:51:28;0.90;;;0.90;;
12826;SDS011;66927;48.812;9.118;2023-08-06T10:53:54;0.47;;;0.47;;
12826;SDS011;66927;48.812;9.118;2023-08-06T10:56:21;0.53;;;0.53;;
12826;SDS011;66927;48.812;9.118;2023-08-06T10:58:50;0.57;;;0.57;;
12826;SDS011;66927;48.812;9.118;2023-08-06T11:01:18;0.50;;;0.50;;
12826;SDS011;66927;48.812;9.118;2023-08-06T11:03:47;0.50;;;0.50;;
12826;SDS011;66927;48.812;9.118;2023-08-06T11:06:18;1.77;;;0.80;;
12826;SDS011;66927;48.812;9.118;2023-08-06T11:08:51;0.53;;;0.50;;
12826;SDS011;66927;48.812;9.118;2023-08-06T11:11:18;1.80;;;0.80;;
12826;SDS011;66927;48.812;9.118;2023-08-06T11:13:45;0.70;;;0.70;;
12826;SDS011;66927;48.812;9.118;2023-08-06T11:16:12;0.87;;;0.87;;
12826;SDS011;66927;48.812;9.118;2023-08-06T11:18:40;0.80;;;0.80;;
12826;SDS011;66927;48.812;9.118;2023-08-06T11:21:07;0.80;;;0.80;;
12826;SDS011;66927;48.812;9.118;2023-08-06T11:23:33;2.53;;;0.60;;
12826;SDS011;66927;48.812;9.118;2023-08-06T11:26:00;0.83;;;0.83;;
12826;SDS011;66927;48.812;9.118;2023-08-06T11:28:25;1.20;;;0.87;;
12826;SDS011;66927;48.812;9.118;2023-08-06T11:30:51;1.10;;;0.90;;
12826;SDS011;66927;48.812;9.118;2023-08-06T11:33:23;0.97;;;0.97;;
12826;SDS011;66927;48.812;9.118;2023-08-06T11:35:53;3.17;;;1.00;;
12826;SDS011;66927;48.812;9.118;2023-08-06T11:38:20;2.30;;;1.13;;
12826;SDS011;66927;48.812;9.118;2023-08-06T11:40:47;1.13;;;1.03;;
12826;SDS011;66927;48.812;9.118;2023-08-06T11:43:13;1.00;;;1.00;;
12826;SDS011;66927;48.812;9.118;2023-08-06T11:45:39;1.10;;;1.00;;
12826;SDS011;66927;48.812;9.118;2023-08-06T11:48:07;1.10;;;1.00;;
12826;SDS011;66927;48.812;9.118;2023-08-06T11:50:36;1.73;;;1.20;;
12826;SDS011;66927;48.812;9.118;2023-08-06T11:53:03;1.00;;;1.00;;
12826;SDS011;66927;48.812;9.118;2023-08-06T11:55:30;1.47;;;1.20;;
12826;SDS011;66927;48.812;9.118;2023-08-06T11:57:56;3.00;;;1.20;;
12826;SDS011;66927;48.812;9.118;2023-08-06T12:00:23;2.47;;;1.50;;
12826;SDS011;66927;48.812;9.118;2023-08-06T12:02:50;1.43;;;1.33;;
12826;SDS011;66927;48.812;9.118;2023-08-06T12:05:21;2.13;;;1.20;;
12826;SDS011;66927;48.812;9.118;2023-08-06T12:07:51;1.50;;;1.40;;
12826;SDS011;66927;48.812;9.118;2023-08-06T12:10:22;2.53;;;1.47;;
12826;SDS011;66927;48.812;9.118;2023-08-06T12:12:49;3.27;;;1.83;;
12826;SDS011;66927;48.812;9.118;2023-08-06T12:15:15;1.67;;;1.50;;
12826;SDS011;66927;48.812;9.118;2023-08-06T12:17:41;1.77;;;1.40;;
12826;SDS011;66927;48.812;9.118;2023-08-06T12:20:07;1.63;;;1.50;;
12826;SDS011;66927;48.812;9.118;2023-08-06T12:22:35;2.30;;;1.50;;
12826;SDS011;66927;48.812;9.118;2023-08-06T12:25:03;3.60;;;1.90;;
12826;SDS011;66927;48.812;9.118;2023-08-06T12:27:37;1.80;;;1.60;;
12826;SDS011;66927;48.812;9.118;2023-08-06T12:30:04;2.73;;;1.70;;
12826;SDS011;66927;48.812;9.118;2023-08-06T12:32:30;2.37;;;1.60;;
12826;SDS011;66927;48.812;9.118;2023-08-06T12:34:56;2.00;;;1.73;;
12826;SDS011;66927;48.812;9.118;2023-08-06T12:37:21;1.83;;;1.43;;
12826;SDS011;66927;48.812;9.118;2023-08-06T12:39:49;1.73;;;1.43;;
12826;SDS011;66927;48.812;9.118;2023-08-06T12:42:14;3.23;;;1.30;;
12826;SDS011;66927;48.812;9.118;2023-08-06T12:44:40;1.40;;;1.30;;
12826;SDS011;66927;48.812;9.118;2023-08-06T12:47:07;1.40;;;1.30;;
12826;SDS011;66927;48.812;9.118;2023-08-06T12:49:32;2.13;;;1.40;;
12826;SDS011;66927;48.812;9.118;2023-08-06T12:51:58;1.10;;;1.00;;
12826;SDS011;66927;48.812;9.118;2023-08-06T12:54:25;3.73;;;1.40;;
12826;SDS011;66927;48.812;9.118;2023-08-06T12:56:52;6.57;;;1.10;;
12826;SDS011;66927;48.812;9.118;2023-08-06T12:59:18;3.07;;;1.20;;
12826;SDS011;66927;48.812;9.118;2023-08-06T13:01:43;2.03;;;1.00;;
12826;SDS011;66927;48.812;9.118;2023-08-06T13:04:10;1.10;;;1.00;;
12826;SDS011;66927;48.812;9.118;2023-08-06T13:06:36;1.70;;;1.10;;
12826;SDS011;66927;48.812;9.118;2023-08-06T13:09:04;2.33;;;1.20;;
12826;SDS011;66927;48.812;9.118;2023-08-06T13:11:30;1.20;;;1.10;;
12826;SDS011;66927;48.812;9.118;2023-08-06T13:14:09;7.27;;;5.77;;
12826;SDS011;66927;48.812;9.118;2023-08-06T13:16:39;1.80;;;1.60;;
12826;SDS011;66927;48.812;9.118;2023-08-06T13:19:06;1.43;;;1.17;;
12826;SDS011;66927;48.812;9.118;2023-08-06T13:21:33;1.37;;;1.00;;
12826;SDS011;66927;48.812;9.118;2023-08-06T13:24:03;1.67;;;1.33;;
12826;SDS011;66927;48.812;9.118;2023-08-06T13:26:29;1.20;;;1.10;;
12826;SDS011;66927;48.812;9.118;2023-08-06T13:28:58;3.37;;;1.27;;
12826;SDS011;66927;48.812;9.118;2023-08-06T13:31:25;0.97;;;0.97;;
12826;SDS011;66927;48.812;9.118;2023-08-06T13:33:52;3.87;;;0.93;;
12826;SDS011;66927;48.812;9.118;2023-08-06T13:36:23;1.67;;;0.90;;
12826;SDS011;66927;48.812;9.118;2023-08-06T13:38:49;1.30;;;0.90;;
12826;SDS011;66927;48.812;9.118;2023-08-06T13:41:16;1.67;;;0.90;;
12826;SDS011;66927;48.812;9.118;2023-08-06T13:43:41;1.03;;;0.93;;
12826;SDS011;66927;48.812;9.118;2023-08-06T13:46:09;1.60;;;0.90;;
12826;SDS011;66927;48.812;9.118;2023-08-06T13:48:38;1.47;;;1.23;;
12826;SDS011;66927;48.812;9.118;2023-08-06T13:51:04;0.80;;;0.80;;
12826;SDS011;66927;48.812;9.118;2023-08-06T13:53:29;0.80;;;0.67;;
12826;SDS011;66927;48.812;9.118;2023-08-06T13:55:57;0.97;;;0.80;;
12826;SDS011;66927;48.812;9.118;2023-08-06T13:58:22;1.70;;;0.97;;
12826;SDS011;66927;48.812;9.118;2023-08-06T14:00:49;1.47;;;0.90;;
12826;SDS011;66927;48.812;9.118;2023-08-06T14:03:17;1.37;;;1.00;;
12826;SDS011;66927;48.812;9.118;2023-08-06T14:05:43;2.00;;;1.07;;
12826;SDS011;66927;48.812;9.118;2023-08-06T14:08:09;0.87;;;0.87;;
12826;SDS011;66927;48.812;9.118;2023-08-06T14:10:34;0.80;;;0.80;;
12826;SDS011;66927;48.812;9.118;2023-08-06T14:13:00;1.17;;;1.07;;
12826;SDS011;66927;48.812;9.118;2023-08-06T14:15:26;1.40;;;0.90;;
12826;SDS011;66927;48.812;9.118;2023-08-06T14:17:51;1.90;;;0.80;;
12826;SDS011;66927;48.812;9.118;2023-08-06T14:20:17;1.80;;;0.90;;
12826;SDS011;66927;48.812;9.118;2023-08-06T14:22:42;2.87;;;0.80;;
12826;SDS011;66927;48.812;9.118;2023-08-06T14:25:08;2.40;;;0.90;;
12826;SDS011;66927;48.812;9.118;2023-08-06T14:27:34;1.20;;;0.83;;
12826;SDS011;66927;48.812;9.118;2023-08-06T14:30:00;0.77;;;0.77;;
12826;SDS011;66927;48.812;9.118;2023-08-06T14:32:27;0.93;;;0.87;;
12826;SDS011;66927;48.812;9.118;2023-08-06T14:34:53;1.00;;;0.90;;
12826;SDS011;66927;48.812;9.118;2023-08-06T14:37:19;2.10;;;0.90;;
12826;SDS011;66927;48.812;9.118;2023-08-06T14:39:45;1.00;;;0.90;;
12826;SDS011;66927;48.812;9.118;2023-08-06T14:42:10;1.80;;;1.00;;
12826;SDS011;66927;48.812;9.118;2023-08-06T14:44:36;1.43;;;1.00;;
12826;SDS011;66927;48.812;9.118;2023-08-06T14:47:03;1.87;;;1.20;;
12826;SDS011;66927;48.812;9.118;2023-08-06T14:49:28;1.10;;;1.00;;
12826;SDS011;66927;48.812;9.118;2023-08-06T14:51:55;1.53;;;1.03;;